Time;durP1;ratioP1;P1;durP2;ratioP2;P2;SDS_P1;SDS_P2;PMS_P1;PMS_P2;Temp;Humidity;BMP_temperature;BMP_pressure;BME280_temperature;BME280_humidity;BME280_pressure;Samples;Min_cycle;Max_cycle;Signal;HPM_P1;HPM_P2
2023/11/08 00:00:02;;;;;;;2.05;0.65;;;;;;;9.22;100.00;100121.91;5145282;28;20600;-71
2023/11/08 00:02:32;;;;;;;3.58;0.82;;;;;;;9.24;100.00;100114.84;5147031;28;20127;-70
2023/11/08 00:05:03;;;;;;;1.23;0.60;;;;;;;9.30;100.00;100113.78;5144879;28;20022;-70
2023/11/08 00:07:33;;;;;;;1.30;0.75;;;;;;;9.38;100.00;100111.72;5146062;28;20034;-70
2023/11/08 00:10:04;;;;;;;1.85;0.70;;;;;;;9.37;100.00;100117.84;5144671;28;20226;-71
2023/11/08 00:12:35;;;;;;;2.10;0.70;;;;;;;9.32;100.00;100109.34;5143812;28;20031;-70
2023/11/08 00:15:08;;;;;;;2.70;0.70;;;;;;;9.41;100.00;100111.59;5145696;28;20026;-71
2023/11/08 00:17:39;;;;;;;3.20;0.80;;;;;;;9.34;100.00;100110.16;5147440;28;20488;-70
2023/11/08 00:20:11;;;;;;;2.42;0.55;;;;;;;9.28;100.00;100115.59;5145629;28;20309;-71
2023/11/08 00:22:44;;;;;;;4.15;0.90;;;;;;;9.24;100.00;100108.78;5147318;28;20088;-70
2023/11/08 00:25:15;;;;;;;2.72;0.70;;;;;;;9.27;100.00;100109.53;5144663;28;20232;-71
2023/11/08 00:27:45;;;;;;;2.15;0.68;;;;;;;9.21;100.00;100114.13;5145501;28;20030;-70
2023/11/08 00:30:15;;;;;;;1.40;0.47;;;;;;;9.20;100.00;100107.19;5146428;28;20034;-71
2023/11/08 00:32:46;;;;;;;1.10;0.50;;;;;;;9.04;100.00;100116.50;5144529;28;20024;-71
2023/11/08 00:35:18;;;;;;;1.05;0.40;;;;;;;9.17;100.00;100110.75;5147333;28;20089;-71
2023/11/08 00:37:49;;;;;;;2.47;0.60;;;;;;;9.08;100.00;100109.41;5144348;28;20105;-70
2023/11/08 00:40:19;;;;;;;2.65;0.80;;;;;;;9.06;100.00;100108.63;5147512;28;20126;-71
2023/11/08 00:42:49;;;;;;;2.40;0.77;;;;;;;9.04;100.00;100116.50;5141640;28;20033;-70
2023/11/08 00:45:19;;;;;;;4.25;0.80;;;;;;;9.03;100.00;100119.19;5147186;28;20041;-70
2023/11/08 00:47:52;;;;;;;1.67;0.60;;;;;;;8.98;100.00;100116.72;5145229;28;20101;-70
2023/11/08 00:50:22;;;;;;;2.13;0.60;;;;;;;8.99;100.00;100122.78;5147647;28;20042;-71
2023/11/08 00:52:53;;;;;;;1.33;0.50;;;;;;;9.14;100.00;100107.44;5145074;28;20042;-70
2023/11/08 00:55:24;;;;;;;2.25;0.80;;;;;;;9.18;100.00;100109.84;5148003;28;20037;-71
2023/11/08 00:57:55;;;;;;;1.20;0.70;;;;;;;9.24;100.00;100112.25;5144895;28;20039;-70
2023/11/08 01:00:26;;;;;;;2.75;0.60;;;;;;;9.21;100.00;100109.75;5138557;28;20038;-70
2023/11/08 01:02:56;;;;;;;4.78;0.70;;;;;;;9.27;100.00;100106.91;5144284;28;20073;-70
2023/11/08 01:05:27;;;;;;;2.40;0.73;;;;;;;9.32;100.00;100102.38;5146104;28;20018;-70
2023/11/08 01:07:57;;;;;;;3.40;0.60;;;;;;;9.33;100.00;100101.47;5144556;28;20038;-71
2023/11/08 01:10:27;;;;;;;2.17;0.40;;;;;;;9.38;100.00;100106.50;5147970;28;20266;-70
2023/11/08 01:12:57;;;;;;;3.60;1.02;;;;;;;9.31;100.00;100098.06;5143619;28;20459;-70
2023/11/08 01:15:28;;;;;;;1.80;0.55;;;;;;;9.42;100.00;100101.13;5144967;28;20034;-70
2023/11/08 01:17:58;;;;;;;1.38;0.70;;;;;;;9.37;100.00;100105.69;5134436;28;20070;-70
2023/11/08 01:20:29;;;;;;;2.47;0.70;;;;;;;9.48;100.00;100107.88;5137555;28;20484;-70
2023/11/08 01:22:59;;;;;;;2.45;0.88;;;;;;;9.49;100.00;100101.75;5140410;28;20033;-70
2023/11/08 01:25:29;;;;;;;1.17;0.50;;;;;;;9.54;100.00;100102.41;5145939;28;20029;-71
2023/11/08 01:28:00;;;;;;;1.67;0.43;;;;;;;9.52;100.00;100097.22;5143199;28;20049;-70
2023/11/08 01:30:30;;;;;;;3.63;1.20;;;;;;;9.64;100.00;100103.75;5168553;23;20130;-76
2023/11/08 01:33:00;;;;;;;3.50;0.60;;;;;;;9.56;100.00;100104.06;5164977;28;20539;-77
2023/11/08 01:35:30;;;;;;;2.10;0.60;;;;;;;9.66;100.00;100092.31;5175190;28;20041;-78
2023/11/08 01:38:01;;;;;;;1.25;0.40;;;;;;;9.66;100.00;100096.72;5185704;28;20375;-77
2023/11/08 01:40:32;;;;;;;4.25;0.73;;;;;;;9.68;100.00;100097.50;5184020;28;20100;-77
2023/11/08 01:43:02;;;;;;;1.90;0.50;;;;;;;9.55;100.00;100101.50;5185483;28;20025;-78
2023/11/08 01:45:32;;;;;;;3.28;0.85;;;;;;;9.61;100.00;100104.72;5183589;28;20029;-77
2023/11/08 01:48:04;;;;;;;1.30;0.50;;;;;;;9.67;100.00;100106.25;5183012;28;20440;-78
2023/11/08 01:50:35;;;;;;;1.25;0.57;;;;;;;9.68;100.00;100106.16;5188443;28;20087;-76
2023/11/08 01:53:05;;;;;;;0.77;0.40;;;;;;;9.64;100.00;100098.53;5185021;28;20037;-77
2023/11/08 01:55:35;;;;;;;2.22;0.70;;;;;;;9.69;100.00;100101.81;5180807;28;20044;-77
2023/11/08 01:58:06;;;;;;;1.83;0.50;;;;;;;9.60;100.00;100113.44;5182460;28;20088;-78
2023/11/08 02:00:39;;;;;;;5.07;0.60;;;;;;;9.73;100.00;100109.47;5173484;28;20034;-76
2023/11/08 02:03:10;;;;;;;1.55;0.57;;;;;;;9.74;100.00;100102.47;5182732;28;20034;-78
2023/11/08 02:05:40;;;;;;;1.90;0.40;;;;;;;9.79;100.00;100103.16;5182438;28;20018;-75
2023/11/08 02:08:10;;;;;;;2.72;0.50;;;;;;;9.72;100.00;100109.50;5178759;28;20096;-78
2023/11/08 02:10:42;;;;;;;1.33;0.57;;;;;;;9.72;100.00;100106.91;5178149;28;20032;-77
2023/11/08 02:13:12;;;;;;;2.58;0.43;;;;;;;9.77;100.00;100104.94;5178417;28;20185;-77
2023/11/08 02:15:43;;;;;;;2.10;0.82;;;;;;;9.79;100.00;100108.38;5185898;28;21701;-77
2023/11/08 02:18:13;;;;;;;0.98;0.45;;;;;;;9.91;100.00;100100.03;5180138;28;20029;-78
2023/11/08 02:20:44;;;;;;;1.90;0.45;;;;;;;9.90;98.95;100095.72;5185352;28;20030;-78
2023/11/08 02:23:14;;;;;;;2.33;0.57;;;;;;;9.91;98.58;100097.41;5182655;28;20207;-77
2023/11/08 02:25:45;;;;;;;1.42;0.50;;;;;;;9.88;99.53;100097.53;5182778;28;20021;-77
2023/11/08 02:28:15;;;;;;;1.58;0.40;;;;;;;9.93;99.45;100098.19;5185428;28;20029;-78
2023/11/08 02:30:54;;;;;;;1.27;0.40;;;;;;;9.87;99.18;100095.84;5185063;28;20025;-78
2023/11/08 02:33:25;;;;;;;1.25;0.43;;;;;;;9.86;99.47;100094.16;5185095;28;20029;-75
2023/11/08 02:36:00;;;;;;;1.83;0.50;;;;;;;9.89;98.01;100104.47;5183597;28;20491;-77
2023/11/08 02:38:31;;;;;;;1.25;0.43;;;;;;;9.93;97.47;100092.97;5185831;28;20157;-79
2023/11/08 02:41:01;;;;;;;2.33;0.50;;;;;;;9.89;97.99;100094.03;5183082;28;20096;-78
2023/11/08 02:43:31;;;;;;;1.65;0.60;;;;;;;9.93;98.95;100100.81;5183264;28;20021;-75
2023/11/08 02:46:02;;;;;;;1.05;0.32;;;;;;;9.95;98.38;100093.75;5184120;28;20475;-78
2023/11/08 02:48:32;;;;;;;0.95;0.47;;;;;;;10.01;97.99;100099.63;5184536;28;20079;-77
2023/11/08 02:51:03;;;;;;;1.73;0.50;;;;;;;9.97;97.99;100091.97;5181675;28;20022;-77
2023/11/08 02:53:33;;;;;;;2.15;0.43;;;;;;;10.00;98.47;100094.44;5185856;28;20069;-77
2023/11/08 02:56:04;;;;;;;4.95;0.50;;;;;;;9.99;98.28;100093.59;5179263;28;20671;-78
2023/11/08 02:58:34;;;;;;;3.17;0.65;;;;;;;9.94;99.40;100092.06;5181075;28;20104;-78
2023/11/08 03:01:04;;;;;;;2.38;0.50;;;;;;;9.98;99.00;100088.44;5183968;28;20122;-78
2023/11/08 03:03:35;;;;;;;3.15;0.70;;;;;;;9.96;98.91;100091.09;5189347;28;20093;-75
2023/11/08 03:06:05;;;;;;;1.85;0.60;;;;;;;9.94;98.37;100092.94;5183250;28;20030;-78
2023/11/08 03:08:37;;;;;;;1.73;0.57;;;;;;;10.03;98.83;100103.00;5184784;28;20170;-76
2023/11/08 03:11:07;;;;;;;2.80;0.77;;;;;;;9.88;99.11;100089.72;5189376;28;20107;-78
2023/11/08 03:13:38;;;;;;;2.65;0.47;;;;;;;9.93;99.40;100096.44;5180685;28;20548;-78
2023/11/08 03:16:08;;;;;;;6.47;0.60;;;;;;;9.95;99.06;100093.75;5180462;28;20100;-78
2023/11/08 03:18:38;;;;;;;3.78;0.88;;;;;;;9.93;99.05;100095.59;5187673;28;20042;-79
2023/11/08 03:21:08;;;;;;;1.73;0.50;;;;;;;9.99;100.00;100092.75;5185834;28;20073;-78
2023/11/08 03:23:39;;;;;;;2.40;0.60;;;;;;;10.03;99.80;100087.34;5187521;28;20112;-78
2023/11/08 03:26:10;;;;;;;1.92;0.60;;;;;;;9.96;99.87;100092.88;5188308;28;20034;-78
2023/11/08 03:28:40;;;;;;;1.42;0.55;;;;;;;9.95;99.83;100096.38;5188775;28;20028;-78
2023/11/08 03:31:12;;;;;;;2.47;0.63;;;;;;;10.01;100.00;100098.75;5183260;28;20034;-78
2023/11/08 03:33:42;;;;;;;2.95;0.80;;;;;;;9.92;100.00;100104.34;5188044;28;20113;-78
2023/11/08 03:36:12;;;;;;;6.30;1.05;;;;;;;9.89;100.00;100104.47;5184830;28;20489;-78
2023/11/08 03:38:43;;;;;;;3.22;0.90;;;;;;;9.86;100.00;100108.03;5182179;28;20767;-78
2023/11/08 03:41:14;;;;;;;4.30;0.93;;;;;;;9.91;100.00;100098.28;5186047;28;20033;-78
2023/11/08 03:43:45;;;;;;;3.38;1.17;;;;;;;9.93;100.00;100100.81;5185063;28;20036;-78
2023/11/08 03:46:16;;;;;;;4.03;0.90;;;;;;;9.85;100.00;100108.13;5183662;28;20065;-78
2023/11/08 03:48:52;;;;;;;3.28;0.70;;;;;;;9.84;100.00;100109.84;5185136;28;20082;-76
2023/11/08 03:51:22;;;;;;;2.00;0.70;;;;;;;9.78;100.00;100109.25;5189104;28;20049;-76
2023/11/08 03:53:53;;;;;;;2.67;1.08;;;;;;;9.83;100.00;100112.56;5186064;28;20068;-78
2023/11/08 03:56:27;;;;;;;5.47;1.30;;;;;;;9.87;100.00;100106.28;5185403;28;20076;-78
2023/11/08 03:58:57;;;;;;;3.88;1.42;;;;;;;9.77;100.00;100110.16;5182933;28;20084;-78
2023/11/08 04:01:29;;;;;;;5.88;1.25;;;;;;;9.84;100.00;100116.84;5177931;28;20033;-76
2023/11/08 04:03:59;;;;;;;3.83;1.30;;;;;;;9.87;100.00;100106.28;5180085;28;20377;-78
2023/11/08 04:06:30;;;;;;;3.35;1.20;;;;;;;9.89;100.00;100114.91;5180102;28;20036;-78
2023/11/08 04:09:00;;;;;;;3.53;1.33;;;;;;;9.83;100.00;100120.38;5181666;28;20057;-78
2023/11/08 04:11:31;;;;;;;4.05;0.90;;;;;;;9.93;100.00;100121.69;5179121;28;20080;-77
2023/11/08 04:14:01;;;;;;;4.13;1.10;;;;;;;9.86;100.00;100123.69;5182001;28;20030;-78
2023/11/08 04:16:39;;;;;;;2.50;1.05;;;;;;;9.83;100.00;100120.38;5178644;28;20032;-78
2023/11/08 04:19:09;;;;;;;3.08;1.30;;;;;;;9.87;100.00;100120.19;5177989;28;20030;-78
2023/11/08 04:21:39;;;;;;;3.45;1.45;;;;;;;9.83;100.00;100125.59;5179957;28;20556;-78
2023/11/08 04:24:09;;;;;;;3.72;1.50;;;;;;;9.89;100.00;100126.22;5179565;28;20022;-78
2023/11/08 04:26:40;;;;;;;4.55;1.55;;;;;;;9.88;100.00;100131.47;5182814;28;20079;-77
2023/11/08 04:29:10;;;;;;;4.03;1.45;;;;;;;9.85;100.00;100131.59;5183787;28;20030;-78
2023/11/08 04:31:40;;;;;;;4.07;1.30;;;;;;;9.96;100.00;100135.47;5179934;28;20030;-78
2023/11/08 04:34:12;;;;;;;3.95;1.38;;;;;;;9.89;100.00;100136.66;5180714;28;20034;-78
2023/11/08 04:36:43;;;;;;;7.75;1.92;;;;;;;9.89;100.00;100130.56;5182856;28;20026;-78
2023/11/08 04:39:16;;;;;;;9.13;1.92;;;;;;;9.93;100.00;100142.56;5178845;28;20084;-78
2023/11/08 04:41:46;;;;;;;6.82;1.55;;;;;;;9.91;100.00;100128.75;5181320;28;20029;-78
2023/11/08 04:44:17;;;;;;;5.15;1.65;;;;;;;10.00;100.00;100136.22;5181309;28;20025;-78
2023/11/08 04:46:47;;;;;;;8.98;1.80;;;;;;;9.90;100.00;100142.69;5179112;28;20112;-79
2023/11/08 04:49:17;;;;;;;7.95;2.83;;;;;;;9.93;100.00;100138.22;5176774;28;20034;-79
2023/11/08 04:51:48;;;;;;;4.43;1.50;;;;;;;10.03;100.00;100133.50;5179464;28;20460;-77
2023/11/08 04:54:18;;;;;;;4.82;1.50;;;;;;;10.06;100.00;100136.00;5179641;28;20029;-78
2023/11/08 04:56:48;;;;;;;4.55;1.42;;;;;;;10.09;100.00;100128.03;5179392;28;20116;-78
2023/11/08 04:59:19;;;;;;;3.47;1.45;;;;;;;10.05;100.00;100131.69;5180077;28;20030;-79
2023/11/08 05:01:49;;;;;;;5.72;1.85;;;;;;;9.96;100.00;100143.31;5179011;28;20120;-77
2023/11/08 05:04:19;;;;;;;4.57;1.77;;;;;;;9.91;100.00;100137.44;5182566;28;20030;-78
2023/11/08 05:06:49;;;;;;;6.45;2.05;;;;;;;9.93;100.00;100140.81;5180802;28;20364;-78
2023/11/08 05:09:20;;;;;;;5.05;1.92;;;;;;;9.92;100.00;100144.34;5179624;28;20049;-77
2023/11/08 05:11:50;;;;;;;9.00;1.80;;;;;;;9.94;100.00;100142.53;5179498;28;20031;-78
2023/11/08 05:14:20;;;;;;;3.65;1.67;;;;;;;9.96;100.00;100140.69;5179786;28;20430;-79
2023/11/08 05:16:51;;;;;;;5.18;2.15;;;;;;;9.98;100.00;100145.88;5180383;28;20304;-79
2023/11/08 05:19:21;;;;;;;6.90;2.10;;;;;;;9.95;100.00;100145.97;5185278;28;20052;-78
2023/11/08 05:21:51;;;;;;;8.77;2.28;;;;;;;9.99;100.00;100140.56;5177922;28;20025;-78
2023/11/08 05:24:22;;;;;;;5.10;1.95;;;;;;;9.95;100.00;100135.53;5182981;28;20104;-78
2023/11/08 05:26:53;;;;;;;7.43;2.03;;;;;;;10.04;100.00;100136.06;5182322;28;20403;-78
2023/11/08 05:29:23;;;;;;;7.65;1.77;;;;;;;9.97;100.00;100138.94;5180616;28;20025;-78
2023/11/08 05:31:54;;;;;;;5.10;1.77;;;;;;;9.95;100.00;100143.34;5182176;28;20033;-78
2023/11/08 05:34:27;;;;;;;7.55;1.60;;;;;;;9.98;100.00;100153.69;5179670;28;20498;-75
2023/11/08 05:36:58;;;;;;;3.25;1.38;;;;;;;10.05;100.00;100152.56;5180965;28;20021;-78
2023/11/08 05:39:29;;;;;;;6.05;1.83;;;;;;;9.93;100.00;100156.50;5182488;28;20028;-78
2023/11/08 05:41:59;;;;;;;4.60;1.45;;;;;;;9.94;100.00;100159.94;5173046;28;20424;-76
2023/11/08 05:44:30;;;;;;;4.38;1.48;;;;;;;9.88;100.00;100152.34;5179286;28;20585;-78
2023/11/08 05:47:01;;;;;;;4.90;1.55;;;;;;;9.98;100.00;100158.94;5178370;28;20577;-78
2023/11/08 05:49:31;;;;;;;6.82;1.60;;;;;;;9.94;100.00;100167.75;5179679;28;20038;-79
2023/11/08 05:52:03;;;;;;;5.07;1.83;;;;;;;9.90;100.00;100154.00;5176491;28;20025;-78
2023/11/08 05:54:33;;;;;;;3.65;1.67;;;;;;;9.91;100.00;100160.06;5180597;28;20046;-78
2023/11/08 05:57:03;;;;;;;5.20;1.95;;;;;;;10.04;100.00;100167.41;5181208;28;20507;-78
2023/11/08 05:59:35;;;;;;;4.75;2.10;;;;;;;10.05;100.00;100163.88;5178782;28;20056;-76
2023/11/08 06:02:05;;;;;;;6.03;2.05;;;;;;;10.14;100.00;100162.66;5175982;28;20029;-78
2023/11/08 06:04:36;;;;;;;3.55;1.65;;;;;;;10.15;100.00;100169.56;5180313;28;20028;-77
2023/11/08 06:07:07;;;;;;;5.72;1.92;;;;;;;10.11;100.00;100170.59;5177606;28;20037;-78
2023/11/08 06:09:37;;;;;;;5.43;2.00;;;;;;;10.20;100.00;100180.69;5179036;28;20101;-76
2023/11/08 06:12:07;;;;;;;7.45;2.30;;;;;;;10.25;100.00;100171.75;5179750;28;20029;-78
2023/11/08 06:14:37;;;;;;;4.25;1.83;;;;;;;10.10;100.00;100179.34;5181388;28;20080;-77
2023/11/08 06:17:08;;;;;;;4.85;1.92;;;;;;;10.04;100.00;100183.06;5179937;28;20513;-78
2023/11/08 06:19:38;;;;;;;4.72;2.08;;;;;;;10.08;100.00;100181.16;5181241;28;20080;-76
2023/11/08 06:22:08;;;;;;;4.50;1.80;;;;;;;10.10;100.00;100192.38;5181431;28;20034;-78
2023/11/08 06:24:39;;;;;;;4.97;2.00;;;;;;;10.02;100.00;100189.25;5185302;28;20053;-78
2023/11/08 06:27:09;;;;;;;5.20;2.30;;;;;;;10.03;100.00;100186.56;5178364;28;20034;-78
2023/11/08 06:29:39;;;;;;;7.97;2.65;;;;;;;10.11;100.00;100188.88;5172373;28;20483;-78
2023/11/08 06:32:10;;;;;;;8.45;3.00;;;;;;;10.14;100.00;100192.22;5175123;28;20068;-79
2023/11/08 06:34:40;;;;;;;7.15;2.60;;;;;;;10.11;100.00;100197.56;5183802;28;20033;-78
2023/11/08 06:37:12;;;;;;;5.25;2.20;;;;;;;10.25;100.00;100194.38;5184948;28;20525;-79
2023/11/08 06:39:42;;;;;;;6.65;2.42;;;;;;;10.18;100.00;100195.56;5182970;28;20018;-78
2023/11/08 06:42:12;;;;;;;4.75;1.90;;;;;;;10.19;100.00;100198.09;5187089;28;20060;-78
2023/11/08 06:44:43;;;;;;;7.85;2.80;;;;;;;10.15;100.00;100200.91;5188844;28;20115;-78
2023/11/08 06:47:14;;;;;;;7.88;2.00;;;;;;;10.19;100.00;100198.09;5186288;28;20114;-78
2023/11/08 06:49:44;;;;;;;4.53;1.95;;;;;;;10.23;100.00;100196.22;5186534;28;20083;-77
2023/11/08 06:52:14;;;;;;;6.43;2.28;;;;;;;10.14;100.00;100205.25;5184637;28;20084;-78
2023/11/08 06:54:44;;;;;;;7.78;2.17;;;;;;;10.10;100.00;100208.06;5184096;28;20021;-78
2023/11/08 06:57:15;;;;;;;4.68;2.05;;;;;;;10.15;100.00;100208.75;5185804;28;20037;-78
2023/11/08 06:59:45;;;;;;;5.15;2.13;;;;;;;10.12;100.00;100211.44;5185646;28;20028;-78
2023/11/08 07:02:15;;;;;;;5.43;2.28;;;;;;;10.21;100.00;100213.72;5186475;28;20034;-78
2023/11/08 07:04:46;;;;;;;5.20;1.77;;;;;;;10.21;100.00;100217.19;5187570;28;20025;-78
2023/11/08 07:07:16;;;;;;;4.43;1.75;;;;;;;10.15;100.00;100221.81;5188779;28;20117;-78
2023/11/08 07:09:48;;;;;;;3.78;1.60;;;;;;;10.30;100.00;100218.56;5185436;28;20030;-78
2023/11/08 07:12:19;;;;;;;4.00;1.33;;;;;;;10.25;100.00;100212.66;5186781;28;20148;-75
2023/11/08 07:14:49;;;;;;;4.15;1.50;;;;;;;10.33;100.00;100221.91;5184108;28;20037;-76
2023/11/08 07:17:19;;;;;;;3.35;1.50;;;;;;;10.18;100.00;100216.44;5185248;28;20029;-75
2023/11/08 07:19:50;;;;;;;3.38;1.15;;;;;;;10.29;100.00;100214.25;5186092;28;20083;-76
2023/11/08 07:22:21;;;;;;;4.47;1.58;;;;;;;10.39;100.00;100219.06;5183580;28;20074;-76
2023/11/08 07:24:51;;;;;;;4.88;1.40;;;;;;;10.21;100.00;100226.75;5183650;28;20100;-78
2023/11/08 07:27:22;;;;;;;2.55;1.20;;;;;;;10.17;100.00;100227.81;5184167;28;20048;-76
2023/11/08 07:29:53;;;;;;;3.08;1.38;;;;;;;10.04;100.00;100239.63;5187885;28;20026;-78
2023/11/08 07:32:23;;;;;;;2.72;1.15;;;;;;;10.06;100.00;100235.19;5211205;23;20044;-70
2023/11/08 07:34:54;;;;;;;3.33;1.20;;;;;;;10.04;100.00;100244.84;5186087;28;20029;-70
2023/11/08 07:37:24;;;;;;;4.15;1.27;;;;;;;10.13;100.00;100242.72;5187874;28;20033;-70
2023/11/08 07:39:54;;;;;;;4.35;1.20;;;;;;;10.33;100.00;100247.19;5186636;28;20305;-71
2023/11/08 07:42:26;;;;;;;5.43;1.40;;;;;;;10.28;100.00;100249.09;5186826;28;20079;-70
2023/11/08 07:44:56;;;;;;;3.60;1.00;;;;;;;10.21;100.00;100251.13;5185850;28;20022;-70
2023/11/08 07:47:27;;;;;;;2.55;1.17;;;;;;;10.28;100.00;100249.09;5187647;28;20538;-71
2023/11/08 07:49:57;;;;;;;4.70;1.02;;;;;;;10.27;100.00;100250.88;5185898;28;20026;-71
2023/11/08 07:52:28;;;;;;;6.10;1.10;;;;;;;10.40;100.00;100249.50;5187461;28;20029;-71
2023/11/08 07:55:01;;;;;;;3.20;1.00;;;;;;;10.54;100.00;100251.53;5184899;28;20035;-71
2023/11/08 07:57:31;;;;;;;4.60;1.20;;;;;;;10.58;100.00;100258.34;5186047;28;20084;-70
2023/11/08 08:00:02;;;;;;;3.38;1.17;;;;;;;10.59;100.00;100265.25;5186655;28;20049;-70
2023/11/08 08:02:32;;;;;;;3.97;1.20;;;;;;;10.63;100.00;100256.38;5184372;28;20368;-70
2023/11/08 08:05:03;;;;;;;5.00;1.40;;;;;;;10.70;100.00;100263.06;5188563;28;20052;-71
2023/11/08 08:07:33;;;;;;;3.05;0.95;;;;;;;10.80;100.00;100264.38;5187823;28;20055;-70
2023/11/08 08:10:06;;;;;;;2.80;1.30;;;;;;;10.68;100.00;100260.50;5185945;28;20033;-70
2023/11/08 08:12:37;;;;;;;3.13;1.40;;;;;;;10.57;100.00;100267.09;5186158;28;20033;-70
2023/11/08 08:15:08;;;;;;;3.95;1.08;;;;;;;10.65;100.00;100275.50;5187909;28;20032;-70
2023/11/08 08:17:39;;;;;;;3.53;1.30;;;;;;;10.60;100.00;100272.19;5185865;28;20029;-71
2023/11/08 08:20:11;;;;;;;3.38;1.23;;;;;;;10.60;100.00;100280.03;5184248;28;20403;-70
2023/11/08 08:22:42;;;;;;;4.97;1.42;;;;;;;10.70;100.00;100283.97;5185565;28;20082;-71
2023/11/08 08:25:12;;;;;;;3.97;1.52;;;;;;;10.79;100.00;100275.75;5187197;28;20060;-70
2023/11/08 08:27:44;;;;;;;6.55;1.90;;;;;;;10.91;99.93;100283.97;5186669;28;21614;-71
2023/11/08 08:30:14;;;;;;;6.53;1.80;;;;;;;11.00;98.34;100278.31;5186645;28;20056;-70
2023/11/08 08:32:44;;;;;;;5.60;1.83;;;;;;;11.02;97.40;100293.06;5186187;28;20053;-71
2023/11/08 08:35:15;;;;;;;5.85;1.80;;;;;;;11.04;98.48;100283.38;5188132;28;20091;-71
2023/11/08 08:37:46;;;;;;;5.57;2.20;;;;;;;11.10;97.50;100280.47;5184995;28;20651;-70
2023/11/08 08:40:17;;;;;;;3.25;1.40;;;;;;;11.12;97.66;100289.13;5184479;28;20153;-70
2023/11/08 08:42:48;;;;;;;4.78;1.45;;;;;;;11.24;98.44;100296.44;5184878;28;20026;-70
2023/11/08 08:45:19;;;;;;;2.78;1.40;;;;;;;11.27;97.45;100287.63;5188636;28;20029;-71
2023/11/08 08:47:52;;;;;;;4.43;1.52;;;;;;;11.24;98.23;100293.84;5184462;28;20387;-71
2023/11/08 08:50:22;;;;;;;2.38;1.08;;;;;;;11.29;97.15;100294.47;5187025;28;20303;-71
2023/11/08 08:52:53;;;;;;;4.18;1.35;;;;;;;11.32;95.86;100297.00;5184513;28;20029;-70
2023/11/08 08:55:24;;;;;;;8.82;1.40;;;;;;;11.36;96.09;100295.06;5188343;28;20026;-71
2023/11/08 08:57:55;;;;;;;4.45;1.67;;;;;;;11.44;95.93;100296.44;5186084;28;20387;-71
2023/11/08 09:00:25;;;;;;;6.20;1.35;;;;;;;11.67;95.87;100296.34;5188412;28;20029;-70
2023/11/08 09:02:55;;;;;;;2.63;1.15;;;;;;;12.12;93.86;100290.78;5187572;28;20029;-71
2023/11/08 09:05:26;;;;;;;5.78;1.60;;;;;;;12.08;92.62;100297.91;5191461;28;20026;-69
2023/11/08 09:07:57;;;;;;;2.97;1.15;;;;;;;11.92;93.07;100299.53;5187686;28;20116;-70
2023/11/08 09:10:28;;;;;;;2.55;1.20;;;;;;;11.98;91.65;100298.41;5188559;28;20534;-69
2023/11/08 09:12:58;;;;;;;3.83;1.30;;;;;;;11.88;92.51;100308.47;5185931;28;20029;-70
2023/11/08 09:15:30;;;;;;;3.28;1.50;;;;;;;12.09;91.88;100304.84;5191804;28;20022;-70
2023/11/08 09:18:01;;;;;;;7.18;1.63;;;;;;;12.22;91.80;100307.75;5183767;28;20535;-70
2023/11/08 09:20:31;;;;;;;3.78;1.55;;;;;;;12.10;92.37;100310.97;5173306;28;20034;-70
2023/11/08 09:23:02;;;;;;;4.60;1.38;;;;;;;12.09;91.27;100323.19;5184652;28;20477;-69
2023/11/08 09:25:34;;;;;;;3.15;1.30;;;;;;;12.03;91.46;100313.00;5183029;28;20109;-69
2023/11/08 09:28:04;;;;;;;3.45;1.30;;;;;;;12.21;91.51;100324.38;5186457;28;20025;-70
2023/11/08 09:30:35;;;;;;;5.57;1.00;;;;;;;12.27;90.44;100322.34;5189551;28;20033;-69
2023/11/08 09:33:05;;;;;;;4.63;1.25;;;;;;;12.27;91.62;100332.00;5186670;28;20040;-70
2023/11/08 09:35:35;;;;;;;3.97;1.10;;;;;;;12.08;90.59;100333.72;5183148;28;20057;-70
2023/11/08 09:38:05;;;;;;;4.28;1.00;;;;;;;12.20;91.05;100336.66;5181158;28;20037;-70
2023/11/08 09:40:36;;;;;;;2.53;1.00;;;;;;;12.04;91.40;100340.03;5179939;28;20372;-69
2023/11/08 09:43:07;;;;;;;3.25;1.38;;;;;;;11.88;92.64;100334.66;5180836;28;20068;-70
2023/11/08 09:45:38;;;;;;;4.32;1.10;;;;;;;11.93;92.50;100339.69;5178878;28;20097;-70
2023/11/08 09:48:09;;;;;;;4.63;1.02;;;;;;;11.86;92.05;100340.84;5176956;28;20034;-70
2023/11/08 09:50:40;;;;;;;4.28;1.10;;;;;;;11.82;92.76;100340.13;5183680;28;20116;-69
2023/11/08 09:53:10;;;;;;;5.60;1.50;;;;;;;11.74;93.49;100342.25;5179991;28;20026;-70
2023/11/08 09:55:41;;;;;;;4.43;1.10;;;;;;;11.93;92.42;100340.50;5181422;28;20533;-69
2023/11/08 09:58:14;;;;;;;1.85;0.82;;;;;;;12.00;92.70;100338.47;5184948;28;20232;-69
2023/11/08 10:00:45;;;;;;;2.38;0.90;;;;;;;11.89;91.83;100331.09;5185240;28;20579;-70
2023/11/08 10:03:16;;;;;;;2.88;1.10;;;;;;;12.20;91.14;100336.66;5183751;28;20044;-70
2023/11/08 10:05:48;;;;;;;2.33;0.90;;;;;;;12.25;90.52;100339.91;5178656;28;20088;-70
2023/11/08 10:08:18;;;;;;;4.45;1.23;;;;;;;12.37;90.11;100333.25;5186019;28;20037;-69
2023/11/08 10:10:51;;;;;;;2.95;1.23;;;;;;;12.21;89.94;100340.97;5182620;28;20025;-69
2023/11/08 10:13:40;;;;;;;5.82;1.30;;;;;;;12.25;89.66;100342.53;5188389;28;20482;-70
2023/11/08 10:16:10;;;;;;;5.65;1.70;;;;;;;12.22;90.07;100334.81;5186900;28;20034;-70
2023/11/08 10:18:40;;;;;;;3.42;0.90;;;;;;;12.03;90.12;100344.44;5188292;28;20036;-70
2023/11/08 10:21:18;;;;;;;2.75;1.20;;;;;;;11.82;91.54;100339.28;5186629;28;20036;-70
2023/11/08 10:23:52;;;;;;;3.78;0.95;;;;;;;11.84;92.00;100337.47;5184754;28;20064;-70
2023/11/08 10:26:25;;;;;;;4.97;1.13;;;;;;;11.84;91.38;100340.94;5187881;28;20033;-70
2023/11/08 10:29:05;;;;;;;1.38;0.80;;;;;;;11.90;91.62;100329.31;5185531;28;20048;-70
2023/11/08 10:31:38;;;;;;;2.58;0.80;;;;;;;12.09;91.76;100333.66;5184413;28;20091;-69
2023/11/08 10:34:11;;;;;;;2.78;0.90;;;;;;;12.27;91.57;100329.38;5185225;28;20034;-70
2023/11/08 10:36:41;;;;;;;4.45;0.82;;;;;;;12.36;91.23;100332.41;5187187;28;20034;-69
2023/11/08 10:39:13;;;;;;;3.38;0.90;;;;;;;12.48;89.36;100325.75;5189588;28;20557;-70
2023/11/08 10:41:45;;;;;;;3.25;0.90;;;;;;;12.46;89.67;100333.66;5187960;28;20033;-70
2023/11/08 10:44:22;;;;;;;2.75;0.93;;;;;;;12.51;89.53;100322.97;5189710;28;20026;-70
2023/11/08 10:46:57;;;;;;;4.20;1.17;;;;;;;12.55;89.09;100328.00;5186178;28;20053;-69
2023/11/08 10:49:28;;;;;;;4.57;1.40;;;;;;;12.48;90.34;100336.22;5190734;28;20033;-70
2023/11/08 10:51:58;;;;;;;5.85;1.75;;;;;;;12.56;89.43;100327.06;5186260;28;20659;-70
2023/11/08 10:54:30;;;;;;;1.90;0.82;;;;;;;12.58;89.74;100324.38;5188709;28;20029;-70
2023/11/08 10:57:04;;;;;;;4.15;0.88;;;;;;;12.72;87.55;100324.56;5184939;28;20049;-70
2023/11/08 10:59:37;;;;;;;4.28;1.23;;;;;;;12.73;88.27;100321.88;5184205;28;20029;-70
2023/11/08 11:02:50;;;;;;;7.80;1.30;;;;;;;12.54;86.83;100318.44;5189008;28;20064;-70
2023/11/08 11:05:22;;;;;;;3.50;1.13;;;;;;;12.40;88.28;100310.38;5165076;28;20541;-70
2023/11/08 11:07:54;;;;;;;4.25;1.20;;;;;;;12.22;88.41;100318.22;5187233;28;20044;-70
2023/11/08 11:10:25;;;;;;;5.78;1.40;;;;;;;12.31;87.11;100307.34;5189029;28;20025;-69
2023/11/08 11:13:03;;;;;;;4.70;1.15;;;;;;;12.18;87.04;100319.31;5188544;28;20072;-69
2023/11/08 11:15:53;;;;;;;3.70;1.38;;;;;;;12.42;87.13;100313.78;5182519;28;20130;-70
2023/11/08 11:18:32;;;;;;;4.70;1.27;;;;;;;12.37;86.78;100307.91;5187216;28;20462;-70
2023/11/08 11:21:10;;;;;;;6.43;1.95;;;;;;;12.38;87.71;100313.97;5184650;28;20045;-70
2023/11/08 11:23:41;;;;;;;5.85;1.35;;;;;;;12.40;85.96;100314.75;5185647;28;20487;-69
2023/11/08 11:26:11;;;;;;;4.47;1.17;;;;;;;12.21;86.05;100317.41;5187918;28;20622;-70
2023/11/08 11:28:55;;;;;;;4.90;1.10;;;;;;;12.31;85.52;100302.94;5187464;28;20030;-69
2023/11/08 11:31:35;;;;;;;6.32;1.30;;;;;;;12.39;84.84;100311.28;5188385;28;20033;-69
2023/11/08 11:34:29;;;;;;;7.40;1.25;;;;;;;12.41;85.71;100298.97;5185780;28;20495;-70
2023/11/08 11:37:18;;;;;;;6.43;1.33;;;;;;;12.58;84.21;100301.63;5185625;28;20037;-69
2023/11/08 11:39:49;;;;;;;5.05;1.20;;;;;;;12.45;84.64;100300.50;5185432;28;20033;-69
2023/11/08 11:42:20;;;;;;;5.93;1.40;;;;;;;12.36;83.85;100303.59;5188439;28;20036;-70